Time;durP1;ratioP1;P1;durP2;ratioP2;P2;SDS_P1;SDS_P2;PMS_P1;PMS_P2;Temp;Humidity;BMP_temperature;BMP_pressure;BME280_temperature;BME280_humidity;BME280_pressure;Samples;Min_cycle;Max_cycle;Signal;HPM_P1;HPM_P2
2021/06/24 00:01:01;;;;;;;27.15;21.08;;;23.80;73.80;;;24.00;56.93;94979.09;4947450;28;20264;-88
2021/06/24 00:03:31;;;;;;;30.30;22.80;;;23.80;74.10;;;24.01;56.93;94980.69;4887818;29;24259;-87
2021/06/24 00:05:59;;;;;;;32.72;21.98;;;23.80;74.00;;;24.01;57.02;94978.84;4765408;29;23335;-88
2021/06/24 00:08:33;;;;;;;33.05;22.85;;;23.80;73.80;;;24.04;56.88;94982.84;5146274;27;20405;-88
2021/06/24 00:11:04;;;;;;;28.80;21.92;;;23.80;73.80;;;24.03;56.82;94970.50;5072417;28;20233;-88
2021/06/24 00:13:31;;;;;;;34.42;24.05;;;23.80;73.90;;;24.00;57.01;94963.84;5071553;28;20235;-88
2021/06/24 00:15:58;;;;;;;32.08;23.17;;;23.80;73.90;;;24.03;56.93;94967.84;5074658;28;20668;-87
2021/06/24 00:18:25;;;;;;;36.15;23.98;;;23.70;73.90;;;23.98;56.96;94958.72;5068029;28;20216;-88
2021/06/24 00:20:53;;;;;;;38.30;24.40;;;23.70;73.90;;;24.00;56.98;94961.16;4997066;28;20650;-86
2021/06/24 00:23:20;;;;;;;32.78;24.15;;;23.70;73.90;;;23.96;56.77;94957.41;4986346;28;20653;-87
2021/06/24 00:25:47;;;;;;;33.53;25.13;;;23.70;74.00;;;23.96;57.21;94960.09;4859512;29;20212;-87
2021/06/24 00:28:28;;;;;;;35.05;24.92;;;23.70;74.00;;;23.97;56.90;94959.00;5149140;27;20846;-87
2021/06/24 00:30:57;;;;;;;31.10;23.48;;;23.70;74.10;;;23.96;57.37;94960.91;5098003;28;20210;-88
2021/06/24 00:33:24;;;;;;;19.73;16.10;;;23.70;74.20;;;23.94;56.99;94957.69;5063786;28;20210;-88
2021/06/24 00:35:51;;;;;;;17.75;13.00;;;23.70;74.00;;;23.91;57.22;94957.41;5054482;28;20211;-88
2021/06/24 00:38:18;;;;;;;14.90;10.07;;;23.70;73.90;;;23.86;56.93;94960.13;5040044;28;20678;-89
2021/06/24 00:40:45;;;;;;;10.40;8.13;;;23.70;73.80;;;23.81;57.57;94971.66;4991155;28;20207;-86
2021/06/24 00:43:16;;;;;;;11.70;7.30;;;23.60;73.70;;;23.78;57.22;94974.88;4941255;28;20208;-88
2021/06/24 00:45:43;;;;;;;9.50;5.88;;;23.60;73.70;;;23.74;56.88;94979.16;4865772;29;20214;-87
2021/06/24 00:50:09;;;;;;;4.32;3.70;;;23.60;73.30;;;23.60;56.57;94963.69;5113140;27;20683;-88
2021/06/24 00:52:37;;;;;;;5.10;3.50;;;23.50;72.80;;;23.55;56.42;94966.38;5062102;28;20205;-87
2021/06/24 00:55:05;;;;;;;3.17;2.85;;;23.50;72.80;;;23.53;56.39;94963.16;5070187;28;20223;-88
2021/06/24 00:57:32;;;;;;;3.70;2.30;;;23.40;72.60;;;23.47;56.09;94961.59;5050249;28;20221;-87
2021/06/24 00:59:59;;;;;;;3.10;2.50;;;23.40;72.60;;;23.43;56.23;94955.97;4950999;28;20224;-88
2021/06/24 01:02:27;;;;;;;2.72;2.20;;;23.30;72.40;;;23.39;55.80;94949.56;4914026;28;20224;-86
2021/06/24 01:04:53;;;;;;;2.65;1.90;;;23.30;72.30;;;23.35;55.85;94959.19;4834163;29;20266;-88
2021/06/24 01:07:20;;;;;;;2.67;2.00;;;23.20;72.10;;;23.29;55.94;94954.94;4741292;29;20328;-88
2021/06/24 01:11:33;;;;;;;4.82;1.60;;;23.20;72.10;;;23.21;55.72;94958.19;5139765;27;20657;-87
2021/06/24 01:14:00;;;;;;;3.72;1.88;;;23.10;72.00;;;23.21;56.05;94972.34;5090536;28;20219;-88
2021/06/24 01:16:26;;;;;;;4.85;1.90;;;23.10;72.00;;;23.22;55.77;94973.97;5062976;28;20724;-87
2021/06/24 01:18:53;;;;;;;2.95;1.80;;;23.10;71.90;;;23.21;55.66;94966.22;5078448;28;20233;-88
2021/06/24 01:21:20;;;;;;;2.38;2.17;;;23.00;71.90;;;23.18;55.47;94970.22;5042828;28;20206;-88
2021/06/24 01:23:47;;;;;;;4.93;1.98;;;23.00;71.80;;;23.13;55.39;94959.47;4904378;29;20351;-87
2021/06/24 01:26:16;;;;;;;2.28;2.08;;;23.00;71.90;;;23.12;55.78;94961.38;4904397;29;20213;-88
2021/06/24 01:28:44;;;;;;;2.53;1.70;;;23.00;71.80;;;23.08;55.63;94962.97;4830006;29;20343;-87
2021/06/24 01:33:14;;;;;;;3.55;1.80;;;22.90;71.80;;;22.97;55.69;94956.03;5150645;27;20626;-88
2021/06/24 01:35:41;;;;;;;2.17;1.52;;;22.90;71.60;;;22.96;55.62;94959.78;5100367;28;20200;-88
2021/06/24 01:38:11;;;;;;;2.17;1.50;;;22.90;71.60;;;22.95;55.49;94966.19;5069175;28;20224;-87
2021/06/24 01:40:51;;;;;;;2.05;1.55;;;22.80;71.70;;;22.93;55.31;94971.03;5064997;28;20238;-87
2021/06/24 01:43:17;;;;;;;1.40;1.30;;;22.80;71.70;;;22.92;55.23;94970.22;5031474;28;20272;-87
2021/06/24 01:45:51;;;;;;;3.70;1.60;;;22.80;71.70;;;22.90;55.28;94967.00;4933941;28;20236;-86
2021/06/24 01:48:19;;;;;;;2.33;1.65;;;22.80;71.90;;;22.91;55.21;94965.13;4813855;29;20215;-84
2021/06/24 01:51:11;;;;;;;2.45;1.60;;;22.70;71.70;;;22.87;55.21;94959.53;5128323;27;20654;-88
2021/06/24 01:53:37;;;;;;;1.90;1.55;;;22.70;71.60;;;22.85;55.37;94967.00;5102516;28;20236;-88
2021/06/24 01:56:07;;;;;;;2.30;1.48;;;22.70;71.60;;;22.80;55.13;94961.66;5071869;28;20200;-87
2021/06/24 01:58:35;;;;;;;2.55;1.60;;;22.70;71.50;;;22.73;55.28;94969.97;5075914;28;20327;-87
2021/06/24 02:01:03;;;;;;;3.97;1.40;;;22.70;71.50;;;22.73;55.07;94972.63;5049159;28;20265;-87
2021/06/24 02:03:37;;;;;;;2.58;1.83;;;22.60;71.60;;;22.68;55.46;94953.94;4991327;28;20246;-87
2021/06/24 02:06:06;;;;;;;2.75;1.48;;;22.60;71.50;;;22.70;55.43;94970.47;4912485;28;20284;-87
2021/06/24 02:08:35;;;;;;;2.10;1.50;;;22.60;71.60;;;22.69;55.62;94972.38;4818670;29;20588;-87
2021/06/24 02:11:13;;;;;;;2.00;1.60;;;22.60;71.70;;;22.67;55.45;94961.13;5133243;27;20321;-88
2021/06/24 02:13:43;;;;;;;2.10;1.77;;;22.60;71.80;;;22.66;55.32;94962.19;5080809;28;20220;-85
2021/06/24 02:16:11;;;;;;;2.10;1.50;;;22.50;71.80;;;22.65;55.42;94955.25;5064163;28;20206;-87
2021/06/24 02:18:38;;;;;;;2.42;1.60;;;22.50;71.90;;;22.66;55.75;94958.72;5082708;28;20229;-87
2021/06/24 02:21:11;;;;;;;2.22;1.65;;;22.50;71.90;;;22.67;55.74;94966.47;5016590;28;20215;-87
2021/06/24 02:23:49;;;;;;;2.22;1.50;;;22.50;72.10;;;22.66;55.57;94970.22;4987969;28;20323;-86
2021/06/24 02:26:24;;;;;;;3.13;1.60;;;22.50;72.10;;;22.64;55.53;94964.34;4939046;28;20207;-87
2021/06/24 02:29:03;;;;;;;2.33;1.65;;;22.50;72.10;;;22.64;55.67;94961.69;4745048;29;20257;-86
2021/06/24 02:33:27;;;;;;;1.90;1.30;;;22.50;72.10;;;22.59;55.44;94958.97;5149600;27;20651;-87
2021/06/24 02:36:06;;;;;;;3.03;1.42;;;22.50;72.00;;;22.56;55.10;94964.88;5099608;28;20209;-87
2021/06/24 02:38:37;;;;;;;3.40;2.03;;;22.50;72.00;;;22.54;55.55;94961.66;5053976;28;20227;-87
2021/06/24 02:41:04;;;;;;;2.38;1.42;;;22.40;72.00;;;22.50;55.98;94955.25;5044436;28;20305;-88
2021/06/24 02:43:33;;;;;;;1.63;1.50;;;22.40;72.10;;;22.49;55.59;94965.13;5022688;28;20248;-86
2021/06/24 02:46:00;;;;;;;1.75;1.50;;;22.40;72.10;;;22.46;55.79;94970.19;4964558;28;20215;-85
2021/06/24 02:48:37;;;;;;;2.55;1.98;;;22.40;72.10;;;22.42;55.75;94974.47;4872724;29;20239;-87
2021/06/24 02:51:04;;;;;;;2.45;1.55;;;22.30;72.10;;;22.37;56.16;94968.03;4706279;29;20232;-86
2021/06/24 02:53:43;;;;;;;1.83;1.50;;;22.30;72.20;;;22.35;55.86;94961.31;5146187;27;20392;-87
2021/06/24 02:56:12;;;;;;;1.95;1.75;;;22.30;72.30;;;22.30;56.35;94967.50;5096932;28;20199;-86
2021/06/24 02:58:43;;;;;;;3.47;1.88;;;22.20;72.30;;;22.26;56.11;94970.94;5064320;28;20240;-86
2021/06/24 03:01:33;;;;;;;2.55;1.95;;;22.20;72.40;;;22.21;56.28;94993.91;5019145;28;20210;-86
2021/06/24 03:04:10;;;;;;;1.83;1.50;;;22.20;72.40;;;22.16;56.53;95004.56;4958612;28;20235;-86
2021/06/24 03:06:39;;;;;;;1.70;1.50;;;22.20;72.60;;;22.13;56.92;95009.63;4867224;29;20221;-88
2021/06/24 03:09:07;;;;;;;4.38;1.90;;;22.10;72.60;;;22.08;56.94;95015.75;4803655;29;20610;-86
2021/06/24 03:14:39;;;;;;;4.63;1.98;;;22.10;72.70;;;21.93;57.63;95023.72;5138869;27;20577;-85
2021/06/24 03:17:06;;;;;;;2.15;1.90;;;22.00;73.00;;;21.84;57.71;95026.09;5116378;28;20646;-86
2021/06/24 03:19:33;;;;;;;2.72;1.80;;;21.90;73.00;;;21.75;57.74;95036.44;5081993;28;20712;-88
2021/06/24 03:22:06;;;;;;;3.30;2.00;;;21.90;74.10;;;21.65;57.74;95025.72;5091941;28;20206;-87
2021/06/24 03:24:44;;;;;;;4.07;2.38;;;21.90;73.30;;;21.58;58.38;95025.94;5058901;28;20323;-88
2021/06/24 03:27:11;;;;;;;3.35;2.08;;;21.70;73.40;;;21.52;58.16;95027.78;5003470;28;20209;-87
2021/06/24 03:29:57;;;;;;;3.10;2.10;;;21.70;73.60;;;21.47;58.44;95011.75;4904654;29;20311;-87
2021/06/24 03:32:23;;;;;;;3.80;1.90;;;21.60;73.70;;;21.44;58.33;95012.25;4724105;30;20222;-86
2021/06/24 03:37:05;;;;;;;2.28;1.70;;;21.50;73.70;;;21.42;58.02;94993.81;5150637;27;20646;-87
2021/06/24 03:39:44;;;;;;;3.00;1.98;;;21.50;73.80;;;21.46;58.19;94999.47;5092108;28;20783;-87
2021/06/24 03:42:11;;;;;;;1.98;1.75;;;21.50;74.00;;;21.50;57.97;94999.75;5068548;28;20217;-86
2021/06/24 03:44:38;;;;;;;2.70;2.00;;;21.50;74.10;;;21.54;58.25;95022.16;5055739;28;20717;-87
2021/06/24 03:47:07;;;;;;;4.38;1.80;;;21.40;74.10;;;21.53;58.17;95016.03;4999808;28;20244;-87
2021/06/24 03:49:34;;;;;;;3.95;2.45;;;21.40;74.20;;;21.56;58.11;95034.22;4964759;28;20222;-88
2021/06/24 03:52:03;;;;;;;4.00;2.50;;;21.50;74.40;;;21.51;58.50;95038.72;4910323;28;20233;-88
2021/06/24 03:54:30;;;;;;;4.63;2.63;;;21.50;74.40;;;21.41;59.20;95026.09;4768435;29;22063;-88
2021/06/24 03:57:14;;;;;;;3.35;2.38;;;21.50;74.80;;;21.30;59.70;95019.09;5151045;27;20387;-89
2021/06/24 03:59:57;;;;;;;6.15;2.40;;;21.40;74.70;;;21.22;59.47;95025.72;5079540;28;20734;-88
2021/06/24 04:02:27;;;;;;;3.13;2.30;;;21.30;74.80;;;21.15;60.03;95025.91;5105313;27;20304;-87
2021/06/24 04:05:20;;;;;;;4.50;2.30;;;21.30;74.80;;;21.09;60.04;95009.09;5073756;28;20244;-88
2021/06/24 04:07:51;;;;;;;5.32;2.30;;;21.20;74.80;;;21.08;59.63;95004.00;5054415;28;20211;-88
2021/06/24 04:10:18;;;;;;;3.83;2.42;;;21.20;75.00;;;21.04;59.46;95014.38;4986837;28;20692;-86
2021/06/24 04:12:45;;;;;;;3.20;2.00;;;21.20;75.00;;;21.05;60.12;95017.84;4907887;29;20216;-87
2021/06/24 04:18:10;;;;;;;4.43;2.30;;;21.20;75.10;;;20.94;61.07;95014.31;5150959;27;20417;-88
2021/06/24 04:20:43;;;;;;;4.70;2.42;;;21.10;75.30;;;20.94;60.67;95006.31;5087715;28;20290;-87
2021/06/24 04:23:11;;;;;;;4.38;2.15;;;21.10;75.40;;;20.94;60.32;95006.31;5083655;28;20199;-88
2021/06/24 04:25:46;;;;;;;4.03;2.30;;;21.00;75.50;;;20.92;60.21;94998.56;5012537;28;20698;-86
2021/06/24 04:28:13;;;;;;;3.58;2.10;;;21.00;76.30;;;20.95;59.86;95008.72;4990581;28;20203;-88
2021/06/24 04:30:53;;;;;;;3.72;2.10;;;21.00;75.40;;;20.98;59.90;95014.59;4945671;28;20227;-86
2021/06/24 04:33:20;;;;;;;3.15;2.28;;;20.90;75.40;;;21.04;59.98;95022.38;4871769;29;20685;-85
2021/06/24 04:36:07;;;;;;;3.22;2.00;;;21.00;75.50;;;21.04;60.20;95026.91;4628885;30;20248;-85
2021/06/24 04:38:44;;;;;;;4.25;2.30;;;21.00;75.60;;;21.04;60.50;95037.56;5146341;27;20854;-86
2021/06/24 04:41:12;;;;;;;2.17;1.80;;;21.00;75.70;;;20.97;60.35;95032.47;5089047;28;20206;-87
2021/06/24 04:43:58;;;;;;;2.58;2.05;;;21.00;75.60;;;20.96;60.23;95025.53;5070690;28;20231;-86
2021/06/24 04:46:27;;;;;;;3.10;2.08;;;21.00;75.60;;;20.98;60.39;95027.94;5087683;28;20212;-85
2021/06/24 04:48:54;;;;;;;3.28;2.35;;;21.00;75.60;;;21.00;59.76;95021.28;5052156;28;20293;-86
2021/06/24 04:51:52;;;;;;;1.85;1.67;;;21.00;75.60;;;21.04;59.75;95034.91;4941411;28;20219;-85
2021/06/24 04:54:29;;;;;;;3.88;2.15;;;21.00;75.50;;;21.06;59.54;95030.94;4884359;29;20301;-86
2021/06/24 04:57:07;;;;;;;2.22;1.83;;;21.00;75.40;;;21.10;59.55;95025.88;5151059;27;20609;-86
2021/06/24 05:00:05;;;;;;;2.13;1.52;;;21.00;75.40;;;21.16;59.77;95018.72;5099195;27;20219;-86
2021/06/24 05:02:50;;;;;;;3.17;1.80;;;21.00;75.40;;;21.24;59.17;95016.38;5099236;28;20573;-85
2021/06/24 05:05:37;;;;;;;1.77;1.38;;;21.00;75.50;;;21.39;59.54;95018.34;5091907;28;20215;-85
2021/06/24 05:08:16;;;;;;;1.77;1.63;;;21.10;75.90;;;21.57;59.55;95019.03;5012715;28;20499;-85
2021/06/24 05:10:45;;;;;;;1.85;1.50;;;21.20;75.90;;;21.76;59.36;95016.69;4866981;29;20200;-85
2021/06/24 05:13:12;;;;;;;1.92;1.45;;;21.30;75.90;;;21.93;58.88;95007.72;4652465;30;20220;-85
2021/06/24 05:18:49;;;;;;;1.88;1.58;;;21.50;75.80;;;22.27;58.56;95008.09;5135142;27;20571;-85
2021/06/24 05:21:17;;;;;;;2.13;1.40;;;21.60;75.70;;;22.42;58.11;95014.56;5093468;28;20592;-84
2021/06/24 05:23:44;;;;;;;2.35;1.50;;;21.90;75.60;;;22.54;57.91;95015.13;5099534;28;20228;-84
2021/06/24 05:26:12;;;;;;;2.10;1.58;;;21.90;75.40;;;22.66;57.71;95012.19;5026119;28;20211;-84
2021/06/24 05:28:38;;;;;;;2.88;1.80;;;22.00;76.20;;;22.77;57.91;95016.47;4915218;28;20229;-84
2021/06/24 05:31:05;;;;;;;3.47;1.40;;;22.10;75.10;;;22.84;57.37;95014.34;4832914;29;20217;-85
2021/06/24 05:33:32;;;;;;;2.58;1.30;;;22.30;74.90;;;22.90;57.13;95011.66;4765416;29;20304;-84
2021/06/24 05:35:59;;;;;;;2.47;1.40;;;22.40;74.70;;;22.93;57.13;95003.91;4557513;30;20289;-83
2021/06/24 05:41:23;;;;;;;2.28;1.40;;;22.50;74.30;;;23.07;56.79;95009.53;5150017;27;20641;-85
2021/06/24 05:43:51;;;;;;;2.83;1.60;;;22.70;74.10;;;23.12;56.65;95000.69;5089687;28;20227;-85
2021/06/24 05:46:17;;;;;;;2.08;1.30;;;22.70;73.90;;;23.18;56.76;94999.66;5063406;28;20218;-84
2021/06/24 05:48:44;;;;;;;2.72;1.35;;;22.80;73.90;;;23.29;56.55;95003.09;5029181;28;20223;-84
2021/06/24 05:51:11;;;;;;;1.30;1.20;;;22.90;73.80;;;23.42;56.30;95009.78;4997084;28;20213;-85
2021/06/24 05:53:38;;;;;;;2.85;1.50;;;22.90;73.90;;;23.54;56.18;95002.25;4894635;29;20635;-84
2021/06/24 05:56:05;;;;;;;1.73;1.40;;;23.00;73.80;;;23.65;55.93;94993.13;4853463;29;20213;-83
2021/06/24 05:58:32;;;;;;;1.80;1.30;;;23.10;73.50;;;23.69;55.68;94990.69;4718591;29;21183;-84
2021/06/24 06:02:19;;;;;;;1.58;1.20;;;23.20;73.10;;;23.70;55.52;94984.28;5136668;27;20591;-83
2021/06/24 06:04:46;;;;;;;1.80;1.38;;;23.30;72.80;;;23.70;55.54;94983.47;5106008;28;20308;-83
2021/06/24 06:07:12;;;;;;;1.00;1.00;;;23.30;72.60;;;23.74;55.55;94989.88;5109626;28;20726;-83
2021/06/24 06:09:39;;;;;;;1.80;1.33;;;23.30;72.50;;;23.75;55.34;94986.13;5069051;28;20317;-84
2021/06/24 06:12:06;;;;;;;2.63;1.50;;;23.30;72.60;;;23.77;55.28;94982.09;5088920;28;20264;-84
2021/06/24 06:14:33;;;;;;;2.58;1.38;;;23.40;72.60;;;23.77;55.25;94984.00;5034339;28;20224;-84
2021/06/24 06:17:00;;;;;;;1.70;1.42;;;23.40;72.60;;;23.78;55.32;94994.44;4965040;28;20278;-84
2021/06/24 06:19:27;;;;;;;2.08;1.52;;;23.40;73.50;;;23.79;55.53;94988.00;4816474;29;20247;-84
2021/06/24 06:24:31;;;;;;;5.38;1.80;;;23.40;72.40;;;23.86;55.21;94986.91;5138666;27;20576;-85
2021/06/24 06:26:58;;;;;;;1.55;1.40;;;23.50;72.70;;;23.89;55.45;94980.97;5094078;28;20209;-85
2021/06/24 06:29:24;;;;;;;1.80;1.40;;;23.50;72.70;;;23.92;55.31;94980.44;5069903;28;20244;-84
2021/06/24 06:31:51;;;;;;;2.53;1.65;;;23.50;73.60;;;24.00;55.60;94971.88;5042296;28;20209;-83
2021/06/24 06:34:18;;;;;;;2.10;1.20;;;23.50;72.80;;;24.09;55.43;94978.25;4947215;28;20314;-85
2021/06/24 06:36:44;;;;;;;1.77;1.60;;;23.60;72.90;;;24.24;55.36;94980.06;4848045;29;20220;-84
2021/06/24 06:39:11;;;;;;;1.60;1.50;;;23.70;73.00;;;24.42;55.04;94988.53;4767064;29;20251;-84
2021/06/24 06:41:37;;;;;;;3.05;1.60;;;23.80;73.00;;;24.57;54.88;94982.25;4671269;30;20225;-84
2021/06/24 06:45:30;;;;;;;1.65;1.42;;;23.90;72.90;;;24.80;54.73;94988.81;5131431;27;20660;-84
2021/06/24 06:47:58;;;;;;;2.15;1.63;;;24.00;73.00;;;24.92;54.30;94983.88;5063428;28;20206;-84
2021/06/24 06:50:25;;;;;;;4.10;2.85;;;24.10;72.60;;;24.97;53.06;94982.25;5095973;28;20314;-84
2021/06/24 06:52:51;;;;;;;2.85;2.55;;;24.30;71.60;;;24.91;53.13;94976.94;5074438;28;20250;-84
2021/06/24 06:55:18;;;;;;;2.70;2.47;;;24.40;71.20;;;24.92;53.31;94975.03;5018438;28;20221;-84
2021/06/24 06:57:45;;;;;;;4.47;2.67;;;24.40;71.20;;;24.89;53.15;94989.81;5012541;28;20299;-84
2021/06/24 07:00:12;;;;;;;6.85;3.80;;;24.50;71.40;;;24.85;52.99;94982.63;5009375;28;20280;-84
2021/06/24 07:02:39;;;;;;;5.15;3.00;;;24.50;71.00;;;24.84;53.54;94989.88;4867904;28;20221;-84
2021/06/24 07:06:55;;;;;;;4.10;2.75;;;24.50;71.40;;;24.91;53.89;94992.22;5150031;27;20550;-85
2021/06/24 07:09:21;;;;;;;4.70;2.50;;;24.50;71.80;;;25.01;54.00;94991.34;5092150;28;20330;-84
2021/06/24 07:11:48;;;;;;;2.50;2.25;;;24.50;71.80;;;25.12;53.92;94989.38;5071676;28;20216;-85
2021/06/24 07:14:15;;;;;;;7.47;5.50;;;24.60;72.20;;;25.22;53.87;95005.38;5054430;28;20226;-84
2021/06/24 07:16:41;;;;;;;11.57;6.05;;;24.60;72.20;;;25.19;53.98;94987.94;4989524;28;20210;-84
2021/06/24 07:19:08;;;;;;;12.25;6.40;;;24.70;72.10;;;25.18;53.53;94986.38;4950100;28;20229;-84
2021/06/24 07:21:35;;;;;;;6.32;5.07;;;24.70;71.60;;;25.15;53.94;94994.97;4860868;29;20202;-84
2021/06/24 07:24:02;;;;;;;6.22;5.03;;;24.80;71.50;;;25.19;53.73;95001.38;4717956;29;20245;-84
2021/06/24 07:28:22;;;;;;;7.63;4.85;;;24.80;71.60;;;25.18;53.35;94998.97;5132008;27;20565;-84
2021/06/24 07:30:49;;;;;;;7.15;4.70;;;24.80;71.40;;;25.16;53.84;94991.22;5098341;28;20209;-85
2021/06/24 07:33:18;;;;;;;7.70;4.60;;;24.80;71.80;;;25.29;54.32;94994.31;5066643;28;20705;-84
2021/06/24 07:35:44;;;;;;;5.90;4.22;;;24.80;72.20;;;25.45;54.42;95003.03;5082183;28;20242;-84
2021/06/24 07:38:11;;;;;;;6.78;5.18;;;24.90;72.40;;;25.60;53.98;95005.56;5023490;28;20631;-84
2021/06/24 07:40:40;;;;;;;6.85;5.03;;;24.90;72.00;;;25.72;53.79;94999.81;4945497;28;20215;-85
2021/06/24 07:43:07;;;;;;;6.60;4.80;;;25.10;72.00;;;25.81;53.36;95008.03;4800151;29;20213;-84
2021/06/24 07:45:36;;;;;;;5.78;4.85;;;25.20;71.80;;;25.86;53.08;94999.91;4705927;29;20238;-86
2021/06/24 07:50:04;;;;;;;7.90;5.32;;;25.30;71.50;;;25.91;52.85;95001.75;5122696;27;20576;-85
2021/06/24 07:52:32;;;;;;;9.13;5.55;;;25.40;70.90;;;25.98;53.21;95000.31;5085460;28;20673;-84
2021/06/24 07:54:59;;;;;;;6.93;4.75;;;25.50;71.00;;;26.13;52.77;95010.09;5072104;28;20228;-84
2021/06/24 07:57:28;;;;;;;8.68;5.50;;;25.50;71.40;;;26.20;52.68;95005.16;5056393;28;20222;-85
2021/06/24 07:59:56;;;;;;;10.38;5.85;;;25.60;71.00;;;26.19;52.47;95013.50;4984202;28;20456;-86
2021/06/24 08:02:23;;;;;;;6.40;5.35;;;25.70;70.80;;;26.17;52.47;95010.31;4825844;29;20220;-85
2021/06/24 08:04:49;;;;;;;7.68;5.78;;;25.70;70.70;;;26.26;52.43;95002.41;4728679;29;20233;-86
2021/06/24 08:07:16;;;;;;;7.97;5.38;;;25.70;70.60;;;26.38;52.67;95000.09;4516819;30;20320;-85
2021/06/24 08:11:59;;;;;;;9.32;6.00;;;25.80;70.90;;;26.40;51.66;95003.28;5149990;27;20616;-85
2021/06/24 08:14:26;;;;;;;6.20;5.13;;;25.90;69.80;;;26.43;51.67;95001.91;5093923;28;20223;-84
2021/06/24 08:16:53;;;;;;;7.80;5.40;;;25.90;69.60;;;26.48;51.46;95002.63;5060111;28;20214;-85
2021/06/24 08:19:20;;;;;;;5.50;4.55;;;25.90;70.00;;;26.60;52.09;94998.69;5017282;28;20219;-84
2021/06/24 08:21:47;;;;;;;8.48;4.70;;;26.00;70.80;;;26.72;52.82;95006.34;4989397;28;20208;-84
2021/06/24 08:24:14;;;;;;;5.70;5.10;;;26.10;70.90;;;26.77;51.92;95012.47;4829791;29;20264;-85
2021/06/24 08:26:41;;;;;;;6.00;5.00;;;26.20;70.10;;;26.80;51.63;95003.00;4694288;30;20221;-86
2021/06/24 08:29:08;;;;;;;5.32;4.50;;;26.20;70.00;;;26.86;51.69;94995.66;4545703;30;20272;-85
2021/06/24 08:33:13;;;;;;;6.63;4.88;;;26.20;70.00;;;26.86;51.39;94996.47;5141903;27;20620;-86
2021/06/24 08:35:40;;;;;;;6.93;4.35;;;26.30;69.70;;;26.80;51.36;94998.41;5062821;28;20189;-86
2021/06/24 08:38:10;;;;;;;7.63;4.72;;;26.30;69.60;;;26.78;51.19;94997.13;5042286;28;20211;-86
2021/06/24 08:40:41;;;;;;;6.65;4.90;;;26.30;69.40;;;26.73;51.71;94995.25;4986127;28;20205;-87
2021/06/24 08:43:11;;;;;;;6.55;4.43;;;26.30;69.70;;;26.78;52.24;94989.84;4951029;28;20206;-87
2021/06/24 08:45:39;;;;;;;13.05;4.30;;;26.30;70.30;;;26.84;52.30;94993.25;4897239;29;20241;-86
2021/06/24 08:48:16;;;;;;;4.97;4.43;;;26.30;70.50;;;26.93;51.40;94996.09;4782591;29;20290;-86
2021/06/24 08:51:53;;;;;;;5.93;4.93;;;26.30;69.40;;;26.88;50.26;94999.66;5151232;27;20931;-86
2021/06/24 08:54:20;;;;;;;7.28;4.25;;;26.40;68.20;;;26.94;50.85;95001.19;5092148;27;20363;-87
2021/06/24 08:56:48;;;;;;;5.43;3.95;;;26.40;69.30;;;27.14;51.83;94997.34;5085379;28;20217;-87
2021/06/24 08:59:15;;;;;;;5.13;3.80;;;26.50;69.90;;;27.29;50.70;95008.94;5074211;28;20223;-86
2021/06/24 09:01:53;;;;;;;4.85;3.83;;;26.60;69.30;;;27.26;50.19;95002.25;5050462;28;20210;-85
2021/06/24 09:04:28;;;;;;;6.40;4.25;;;26.60;68.80;;;27.21;50.54;94991.59;4956760;28;20240;-85
2021/06/24 09:07:09;;;;;;;4.55;3.42;;;26.70;68.40;;;27.30;51.17;94995.19;4797593;29;20221;-85
2021/06/24 09:09:39;;;;;;;5.07;3.40;;;26.70;69.00;;;27.51;51.00;95005.63;4669884;30;20253;-84
2021/06/24 09:14:15;;;;;;;6.82;5.28;;;26.80;69.60;;;27.37;48.79;94996.69;5143163;27;20663;-86
2021/06/24 09:16:45;;;;;;;4.65;4.15;;;26.90;68.00;;;27.16;49.76;95005.13;5057058;28;20676;-85
2021/06/24 09:19:27;;;;;;;6.65;4.85;;;26.90;67.90;;;27.02;49.91;94986.25;5105564;28;20235;-86
2021/06/24 09:22:08;;;;;;;4.93;4.30;;;26.80;68.30;;;27.05;50.55;94990.22;5056281;28;20233;-86
2021/06/24 09:24:48;;;;;;;4.68;3.90;;;26.70;68.40;;;27.21;50.23;94988.88;5044914;28;20235;-86
2021/06/24 09:27:18;;;;;;;4.75;4.10;;;26.70;68.40;;;27.43;50.30;94990.94;4938468;28;20311;-85
2021/06/24 09:30:11;;;;;;;4.43;4.00;;;26.80;68.40;;;27.54;49.95;94974.59;4855421;29;20242;-87
2021/06/24 09:35:23;;;;;;;5.47;3.90;;;26.80;68.40;;;27.72;50.22;94975.59;5125926;27;20399;-84
2021/06/24 09:38:13;;;;;;;5.07;3.55;;;27.00;68.60;;;27.80;50.17;94972.22;5051166;28;20214;-85
2021/06/24 09:40:57;;;;;;;4.15;3.50;;;27.10;68.70;;;27.91;50.21;94972.81;5033976;28;20296;-85
2021/06/24 09:43:39;;;;;;;4.60;3.50;;;27.20;68.70;;;27.96;50.32;94978.09;4965644;28;20462;-85
2021/06/24 09:46:15;;;;;;;4.05;3.40;;;27.20;68.70;;;27.99;50.04;94976.69;4922308;29;20209;-85
2021/06/24 09:48:47;;;;;;;5.93;3.95;;;27.30;68.80;;;28.00;50.26;94975.59;4836422;29;20235;-85
2021/06/24 09:51:19;;;;;;;3.53;3.22;;;27.40;68.80;;;28.01;49.64;94979.88;4713113;30;20236;-85
2021/06/24 09:56:25;;;;;;;4.50;3.08;;;27.40;68.10;;;28.05;49.70;94973.63;5150434;27;20344;-85
2021/06/24 09:58:54;;;;;;;5.07;3.78;;;27.40;68.10;;;28.00;49.46;94972.88;5094599;27;20655;-86
2021/06/24 10:01:30;;;;;;;5.03;3.58;;;27.50;67.40;;;27.93;49.53;94970.63;5081646;28;20689;-86
2021/06/24 10:03:59;;;;;;;4.45;3.30;;;27.40;68.10;;;28.01;49.50;94972.56;5031678;28;20633;-86
2021/06/24 10:06:28;;;;;;;3.55;3.25;;;27.40;67.80;;;28.12;49.73;94975.88;4985846;28;20271;-86
2021/06/24 10:08:56;;;;;;;4.20;3.38;;;27.50;68.40;;;28.21;49.19;94971.38;4901483;29;20239;-86
2021/06/24 10:11:25;;;;;;;4.70;3.50;;;27.50;68.40;;;28.30;49.81;94979.56;4763537;29;20234;-86
2021/06/24 10:13:52;;;;;;;3.47;3.17;;;27.60;68.20;;;28.46;49.74;94973.84;4621722;30;20722;-85
2021/06/24 10:16:29;;;;;;;4.40;3.15;;;27.60;68.40;;;28.56;49.24;94971.69;5149229;27;20388;-86
2021/06/24 10:18:59;;;;;;;3.83;3.22;;;27.70;68.40;;;28.67;49.75;94974.16;5108008;28;20231;-86
2021/06/24 10:21:29;;;;;;;3.42;3.08;;;27.90;68.20;;;28.72;49.35;94977.56;5080376;28;20219;-86
2021/06/24 10:24:05;;;;;;;4.18;3.33;;;27.90;67.80;;;28.75;49.07;94973.47;5087693;28;20233;-86
2021/06/24 10:26:32;;;;;;;3.10;2.80;;;28.00;68.00;;;28.80;48.81;94972.53;5042734;28;20288;-86
2021/06/24 10:29:15;;;;;;;3.78;3.15;;;28.10;67.30;;;28.78;48.07;94964.72;5001506;28;20282;-86
2021/06/24 10:31:47;;;;;;;3.83;3.00;;;28.10;67.20;;;28.86;48.81;94972.09;4955528;28;20562;-85
2021/06/24 10:35:34;;;;;;;2.83;2.63;;;28.10;67.20;;;28.88;48.71;94969.09;5130500;27;20659;-85
2021/06/24 10:38:02;;;;;;;3.67;2.70;;;28.20;67.20;;;28.92;48.88;94970.88;5073783;28;20668;-83
2021/06/24 10:40:41;;;;;;;3.17;2.95;;;28.20;67.60;;;28.89;48.09;94965.28;5106040;28;20223;-83
2021/06/24 10:43:14;;;;;;;3.20;2.90;;;28.30;66.90;;;28.88;48.08;94969.09;5073281;28;20222;-85
2021/06/24 10:45:44;;;;;;;3.17;2.85;;;28.30;66.60;;;28.87;48.13;94960.19;5035427;28;20747;-85
2021/06/24 10:48:31;;;;;;;3.40;3.10;;;28.30;66.80;;;28.84;47.88;94960.81;5010952;28;20216;-85
2021/06/24 10:51:05;;;;;;;3.13;2.75;;;28.30;66.90;;;28.88;48.46;94963.69;4844586;29;20226;-86
2021/06/24 10:56:44;;;;;;;3.70;2.58;;;28.30;66.90;;;28.89;48.19;94967.97;5137937;27;20666;-86
2021/06/24 10:59:43;;;;;;;3.13;2.83;;;28.30;66.70;;;28.90;48.58;94961.47;5068764;28;20222;-85
2021/06/24 11:02:11;;;;;;;3.47;3.00;;;28.30;67.10;;;28.96;47.79;94962.16;4989988;28;20219;-85
2021/06/24 11:04:41;;;;;;;2.90;2.70;;;28.30;66.40;;;28.97;48.07;94951.03;4976658;28;20328;-86
2021/06/24 11:07:21;;;;;;;3.28;2.78;;;28.30;66.30;;;29.03;48.30;94963.31;4898096;29;20227;-86
2021/06/24 11:10:13;;;;;;;4.07;3.00;;;28.40;67.00;;;29.10;48.04;94965.59;4782620;29;20703;-86
2021/06/24 11:13:01;;;;;;;4.57;3.00;;;28.40;66.70;;;29.18;47.92;94964.03;4592005;30;20327;-84
2021/06/24 11:18:33;;;;;;;4.00;2.85;;;28.50;66.10;;;29.34;47.59;94949.03;5146838;27;20571;-85
2021/06/24 11:21:13;;;;;;;4.00;2.85;;;28.50;66.10;;;29.39;47.62;94946.22;5090740;28;20232;-84
2021/06/24 11:24:01;;;;;;;3.30;2.85;;;28.70;66.10;;;29.46;47.28;94944.97;5074446;28;20228;-85
2021/06/24 11:26:30;;;;;;;2.83;2.63;;;28.70;66.10;;;29.51;47.46;94944.84;5034595;28;20208;-86